Time;durP1;ratioP1;P1;durP2;ratioP2;P2;SDS_P1;SDS_P2;PMS_P1;PMS_P2;Temp;Humidity;BMP_temperature;BMP_pressure;BME280_temperature;BME280_humidity;BME280_pressure;Samples;Min_cycle;Max_cycle;Signal;HPM_P1;HPM_P2
2023/12/14 00:02:13;;;;;;;10.05;7.68;;;;;;;7.98;78.68;98983.19;4964323;28;20051;-74
2023/12/14 00:04:40;;;;;;;11.05;7.28;;;;;;;7.95;78.49;98992.06;4972033;28;20046;-73
2023/12/14 00:07:07;;;;;;;11.52;6.80;;;;;;;7.93;78.74;98991.34;4971567;28;20133;-73
2023/12/14 00:09:33;;;;;;;8.68;6.68;;;;;;;7.92;78.53;98992.25;4949982;29;20134;-74
2023/12/14 00:12:00;;;;;;;10.85;6.75;;;;;;;7.90;78.65;98997.59;4969132;28;20046;-73
2023/12/14 00:14:27;;;;;;;10.43;6.80;;;;;;;7.88;78.82;98999.44;4971747;28;20050;-76
2023/12/14 00:16:53;;;;;;;11.57;7.35;;;;;;;7.88;78.60;99009.06;4971745;28;20515;-74
2023/12/14 00:19:23;;;;;;;10.27;7.15;;;;;;;7.87;78.71;99013.50;4955015;28;20484;-73
2023/12/14 00:21:49;;;;;;;10.52;6.47;;;;;;;7.86;78.92;99016.19;4954861;28;20059;-74
2023/12/14 00:24:16;;;;;;;10.40;7.18;;;;;;;7.84;78.73;99033.78;4971686;28;20050;-73
2023/12/14 00:26:43;;;;;;;10.48;6.75;;;;;;;7.80;78.45;99039.19;4971585;28;20424;-73
2023/12/14 00:29:09;;;;;;;8.20;6.13;;;;;;;7.80;78.88;99035.72;4971583;28;20066;-73
2023/12/14 00:31:36;;;;;;;9.90;6.57;;;;;;;7.77;78.21;99028.03;4954701;28;20054;-74
2023/12/14 00:34:02;;;;;;;9.38;5.78;;;;;;;7.75;78.77;99036.00;4971405;28;20050;-75
2023/12/14 00:36:29;;;;;;;6.78;5.35;;;;;;;7.74;78.63;99038.72;4965231;28;20090;-73
2023/12/14 00:38:56;;;;;;;12.55;6.55;;;;;;;7.73;78.90;99037.84;4971986;28;20042;-74
2023/12/14 00:41:23;;;;;;;6.90;5.43;;;;;;;7.73;78.55;99042.28;4971969;28;20126;-74
2023/12/14 00:43:50;;;;;;;6.93;5.63;;;;;;;7.73;78.44;99050.13;4972009;28;20047;-73
2023/12/14 00:46:16;;;;;;;8.00;5.65;;;;;;;7.72;78.30;99051.03;4971277;28;20051;-73
2023/12/14 00:48:43;;;;;;;8.63;5.60;;;;;;;7.69;78.49;99050.28;4971761;28;20054;-74
2023/12/14 00:51:09;;;;;;;6.70;5.53;;;;;;;7.69;78.46;99066.00;4971308;28;20051;-73
2023/12/14 00:53:36;;;;;;;11.05;6.10;;;;;;;7.68;78.46;99077.44;4971173;28;20484;-73
2023/12/14 00:56:03;;;;;;;6.75;5.55;;;;;;;7.67;78.72;99086.19;4970801;28;20043;-73
2023/12/14 00:58:29;;;;;;;7.50;6.13;;;;;;;7.67;78.89;99086.19;4971507;28;20134;-76
2023/12/14 01:00:56;;;;;;;8.55;5.90;;;;;;;7.67;78.76;99086.19;4963957;28;20055;-73
2023/12/14 01:03:23;;;;;;;7.82;5.85;;;;;;;7.67;78.72;99088.81;4971390;28;20050;-73
2023/12/14 01:05:49;;;;;;;7.93;5.65;;;;;;;7.67;78.71;99101.09;4971406;28;20058;-77
2023/12/14 01:08:16;;;;;;;7.72;5.93;;;;;;;7.68;78.63;99105.38;4970075;28;20059;-73
2023/12/14 01:10:43;;;;;;;9.77;7.00;;;;;;;7.67;78.54;99109.78;4961169;28;20055;-74
2023/12/14 01:13:09;;;;;;;7.47;6.05;;;;;;;7.67;78.87;99112.38;4968643;28;20058;-73
2023/12/14 01:15:36;;;;;;;8.82;6.55;;;;;;;7.67;78.80;99120.25;4963451;28;20113;-73
2023/12/14 01:18:03;;;;;;;11.82;6.75;;;;;;;7.68;78.69;99129.81;4971443;28;20082;-73
2023/12/14 01:20:30;;;;;;;10.18;6.68;;;;;;;7.67;78.83;99130.72;4965932;28;20138;-76
2023/12/14 01:22:56;;;;;;;9.02;6.95;;;;;;;7.67;78.64;99133.34;4974595;28;20084;-74
2023/12/14 01:25:23;;;;;;;11.05;6.72;;;;;;;7.67;78.51;99143.81;4974443;28;20059;-73
2023/12/14 01:27:50;;;;;;;11.57;6.93;;;;;;;7.66;78.73;99142.13;4974762;28;20046;-73
2023/12/14 01:30:16;;;;;;;9.45;6.82;;;;;;;7.65;78.60;99148.31;4973087;28;20051;-74
2023/12/14 01:32:43;;;;;;;9.77;7.10;;;;;;;7.65;78.67;99147.47;4969346;28;20046;-72
2023/12/14 01:35:09;;;;;;;9.00;6.80;;;;;;;7.64;78.92;99149.25;4974307;28;20047;-74
2023/12/14 01:37:36;;;;;;;9.45;7.60;;;;;;;7.64;78.53;99169.34;4974562;28;20403;-74
2023/12/14 01:40:03;;;;;;;8.95;6.88;;;;;;;7.63;78.42;99160.63;4957212;28;20077;-75
2023/12/14 01:42:29;;;;;;;9.77;6.80;;;;;;;7.63;78.30;99162.44;4974010;28;20089;-73
2023/12/14 01:44:56;;;;;;;9.20;6.88;;;;;;;7.63;78.41;99167.66;4957483;28;20055;-74
2023/12/14 01:47:22;;;;;;;10.05;7.10;;;;;;;7.61;78.49;99170.38;4974124;28;20050;-73
2023/12/14 01:49:49;;;;;;;8.20;7.00;;;;;;;7.60;78.65;99176.53;4973888;28;20047;-74
2023/12/14 01:52:16;;;;;;;11.90;7.18;;;;;;;7.60;78.78;99173.06;4973950;28;20121;-72
2023/12/14 01:54:42;;;;;;;12.40;7.18;;;;;;;7.59;78.06;99185.31;4974323;28;20699;-75
2023/12/14 01:57:09;;;;;;;10.02;7.28;;;;;;;7.59;78.31;99182.69;4973679;28;20097;-72
2023/12/14 01:59:35;;;;;;;10.50;8.00;;;;;;;7.57;78.43;99187.16;4956948;28;20584;-72
2023/12/14 02:02:02;;;;;;;10.98;7.30;;;;;;;7.57;78.54;99195.03;4974267;28;20074;-74
2023/12/14 02:04:30;;;;;;;10.43;8.50;;;;;;;7.57;78.33;99195.03;4974242;28;20055;-73
2023/12/14 02:06:57;;;;;;;11.68;8.40;;;;;;;7.55;78.40;99202.97;4973829;28;20093;-73
2023/12/14 02:09:23;;;;;;;12.23;8.55;;;;;;;7.54;78.35;99208.28;4974010;28;20050;-74
2023/12/14 02:11:50;;;;;;;9.65;8.02;;;;;;;7.54;78.40;99210.91;4956564;28;20101;-74
2023/12/14 02:14:16;;;;;;;11.45;8.45;;;;;;;7.51;77.94;99214.53;4973705;28;20059;-73
2023/12/14 02:16:43;;;;;;;11.40;8.50;;;;;;;7.48;78.11;99217.31;4973937;28;20051;-74
2023/12/14 02:19:10;;;;;;;9.40;7.28;;;;;;;7.47;77.83;99220.03;4957198;28;20072;-72
2023/12/14 02:21:36;;;;;;;9.02;7.38;;;;;;;7.45;78.13;99232.34;4973751;28;20049;-74
2023/12/14 02:24:03;;;;;;;8.25;7.32;;;;;;;7.43;78.03;99235.03;4973426;28;20047;-75
2023/12/14 02:26:30;;;;;;;9.77;7.53;;;;;;;7.41;78.28;99237.72;4973113;28;20090;-74
2023/12/14 02:28:56;;;;;;;8.93;7.35;;;;;;;7.38;77.88;99237.91;4955918;28;20121;-72
2023/12/14 02:31:23;;;;;;;8.30;6.85;;;;;;;7.38;78.54;99253.63;4965005;28;20059;-74
2023/12/14 02:33:50;;;;;;;8.48;7.20;;;;;;;7.37;78.24;99249.28;4966172;28;20613;-73
2023/12/14 02:36:16;;;;;;;9.07;7.40;;;;;;;7.37;78.41;99251.09;4965944;28;20047;-72
2023/12/14 02:38:43;;;;;;;8.38;7.03;;;;;;;7.36;77.79;99250.22;4973580;28;20050;-74
2023/12/14 02:41:10;;;;;;;10.27;7.20;;;;;;;7.35;77.75;99258.16;4973620;28;20407;-74
2023/12/14 02:43:38;;;;;;;9.05;7.03;;;;;;;7.34;77.99;99261.69;4973817;28;20043;-73
2023/12/14 02:46:04;;;;;;;8.73;6.85;;;;;;;7.33;78.21;99260.03;4972764;28;20058;-74
2023/12/14 02:48:31;;;;;;;9.05;7.25;;;;;;;7.32;78.03;99266.19;4973262;28;20074;-72
2023/12/14 02:51:00;;;;;;;9.57;7.40;;;;;;;7.32;78.30;99271.44;4956037;28;20043;-73
2023/12/14 02:53:27;;;;;;;8.90;7.40;;;;;;;7.32;78.33;99268.81;4972246;28;20055;-72
2023/12/14 02:55:54;;;;;;;9.75;7.93;;;;;;;7.32;78.35;99272.25;4973190;28;20043;-73
2023/12/14 02:58:20;;;;;;;9.63;7.40;;;;;;;7.32;78.26;99277.50;4973132;28;20101;-74
2023/12/14 03:00:47;;;;;;;10.25;7.97;;;;;;;7.31;78.28;99278.41;4973375;28;20058;-74
2023/12/14 03:03:13;;;;;;;10.60;7.95;;;;;;;7.31;78.09;99278.41;4965340;28;20051;-75
2023/12/14 03:05:40;;;;;;;9.00;7.32;;;;;;;7.29;78.35;99275.88;4973156;28;20077;-73
2023/12/14 03:08:07;;;;;;;8.98;7.38;;;;;;;7.30;78.14;99281.97;4973226;28;20468;-73
2023/12/14 03:10:33;;;;;;;10.88;8.38;;;;;;;7.30;78.42;99280.19;4972996;28;20043;-74
2023/12/14 03:13:00;;;;;;;14.32;9.15;;;;;;;7.30;78.16;99277.56;4955981;28;20463;-73
2023/12/14 03:15:27;;;;;;;12.07;8.85;;;;;;;7.30;78.40;99281.97;4972909;28;20128;-73
2023/12/14 03:17:53;;;;;;;12.38;8.65;;;;;;;7.31;78.13;99288.91;4973043;28;20054;-73
2023/12/14 03:20:20;;;;;;;11.13;8.43;;;;;;;7.32;78.26;99284.53;4972879;28;20051;-73
2023/12/14 03:22:47;;;;;;;12.05;9.48;;;;;;;7.32;77.93;99287.97;4972964;28;20054;-75
2023/12/14 03:25:14;;;;;;;11.73;9.52;;;;;;;7.32;78.45;99298.44;4972579;28;20075;-74
2023/12/14 03:27:40;;;;;;;12.70;9.65;;;;;;;7.33;78.03;99296.69;4972468;28;20055;-74
2023/12/14 03:30:09;;;;;;;12.00;9.60;;;;;;;7.33;78.06;99307.97;4972473;28;20046;-73
2023/12/14 03:32:37;;;;;;;14.57;10.75;;;;;;;7.33;78.04;99307.16;4947735;28;20054;-74
2023/12/14 03:35:04;;;;;;;13.65;10.43;;;;;;;7.33;77.88;99313.22;4972154;28;20514;-74
2023/12/14 03:37:31;;;;;;;13.13;10.13;;;;;;;7.33;78.24;99312.38;4972397;28;20082;-74
2023/12/14 03:39:58;;;;;;;13.30;10.43;;;;;;;7.32;78.27;99321.16;4967243;28;20066;-73
2023/12/14 03:42:24;;;;;;;13.02;9.90;;;;;;;7.33;78.60;99325.47;4970292;28;20051;-74
2023/12/14 03:44:51;;;;;;;13.88;10.52;;;;;;;7.33;78.13;99328.91;4950730;29;20039;-73
2023/12/14 03:47:18;;;;;;;14.07;10.38;;;;;;;7.34;78.01;99335.00;4970438;28;20042;-74
2023/12/14 03:49:44;;;;;;;12.60;10.40;;;;;;;7.34;78.19;99335.00;4971987;28;20055;-73
2023/12/14 03:52:11;;;;;;;16.98;11.60;;;;;;;7.34;78.28;99346.34;4972347;28;20055;-72
2023/12/14 03:54:37;;;;;;;15.48;11.95;;;;;;;7.34;78.08;99340.25;4972264;28;20038;-73
2023/12/14 03:57:04;;;;;;;15.57;11.35;;;;;;;7.34;78.03;99351.59;4971926;28;20042;-77
2023/12/14 03:59:32;;;;;;;12.93;10.50;;;;;;;7.33;78.07;99352.47;4972008;28;20054;-75
2023/12/14 04:01:59;;;;;;;12.15;10.00;;;;;;;7.32;78.38;99356.03;4972359;28;20138;-74
2023/12/14 04:04:26;;;;;;;14.18;10.75;;;;;;;7.34;77.91;99355.97;4971384;28;20066;-72
2023/12/14 04:06:52;;;;;;;13.90;11.07;;;;;;;7.33;78.04;99360.34;4971886;28;20097;-72
2023/12/14 04:09:19;;;;;;;15.38;11.90;;;;;;;7.33;77.81;99362.97;4969193;28;20043;-74
2023/12/14 04:11:45;;;;;;;17.90;13.07;;;;;;;7.33;78.14;99370.81;4964935;28;20047;-73
2023/12/14 04:14:12;;;;;;;16.48;12.30;;;;;;;7.33;77.80;99380.47;4972136;28;20484;-73
2023/12/14 04:16:39;;;;;;;15.55;12.13;;;;;;;7.32;77.80;99387.44;4971314;28;20043;-74
2023/12/14 04:19:09;;;;;;;14.82;11.98;;;;;;;7.32;78.01;99395.31;4972104;28;20129;-73
2023/12/14 04:21:37;;;;;;;17.52;12.73;;;;;;;7.33;77.76;99398.78;4954914;28;20043;-72
2023/12/14 04:24:04;;;;;;;17.02;13.10;;;;;;;7.33;77.93;99394.38;4971855;28;20039;-73
2023/12/14 04:26:30;;;;;;;15.85;12.82;;;;;;;7.33;78.04;99401.41;4953978;28;20073;-74
2023/12/14 04:28:57;;;;;;;16.58;12.68;;;;;;;7.33;77.98;99394.38;4972125;28;20047;-72
2023/12/14 04:31:24;;;;;;;17.42;13.20;;;;;;;7.34;78.29;99409.19;4954114;28;20054;-74
2023/12/14 04:33:50;;;;;;;16.95;12.93;;;;;;;7.35;78.13;99413.50;4971771;28;20043;-74
2023/12/14 04:36:17;;;;;;;16.65;13.18;;;;;;;7.36;78.03;99416.97;4971082;28;20047;-72
2023/12/14 04:38:45;;;;;;;18.48;14.93;;;;;;;7.36;78.06;99423.03;4955414;28;20058;-74
2023/12/14 04:41:13;;;;;;;18.80;14.73;;;;;;;7.37;78.08;99423.91;4971681;28;20039;-73
2023/12/14 04:43:40;;;;;;;19.88;15.30;;;;;;;7.37;77.87;99426.50;4963917;28;20050;-74
2023/12/14 04:46:07;;;;;;;17.55;14.15;;;;;;;7.38;77.97;99430.81;4972054;28;20050;-76
2023/12/14 04:48:33;;;;;;;18.73;14.63;;;;;;;7.38;77.78;99434.31;4971756;28;20039;-72
2023/12/14 04:51:00;;;;;;;18.23;14.65;;;;;;;7.38;78.03;99434.31;4964206;28;20046;-74
2023/12/14 04:53:26;;;;;;;20.55;14.98;;;;;;;7.38;77.75;99443.91;4964065;28;20059;-73
2023/12/14 04:55:53;;;;;;;17.50;13.93;;;;;;;7.37;77.74;99437.81;4957243;28;20502;-73
2023/12/14 04:58:20;;;;;;;15.90;13.20;;;;;;;7.37;77.48;99452.69;4958315;28;20082;-74
2023/12/14 05:00:47;;;;;;;16.30;13.10;;;;;;;7.36;77.67;99458.88;4975298;28;20047;-73
2023/12/14 05:03:13;;;;;;;15.43;13.10;;;;;;;7.34;77.50;99455.47;4975599;28;20166;-74
2023/12/14 05:05:40;;;;;;;17.45;12.70;;;;;;;7.32;77.25;99452.91;4975275;28;20050;-74
2023/12/14 05:08:07;;;;;;;15.25;12.07;;;;;;;7.30;77.37;99454.78;4957969;28;20055;-74
2023/12/14 05:10:33;;;;;;;14.30;11.23;;;;;;;7.29;77.07;99453.09;4958006;28;20078;-72
2023/12/14 05:13:02;;;;;;;14.60;12.05;;;;;;;7.26;77.14;99453.22;4975317;28;20043;-73
2023/12/14 05:15:29;;;;;;;14.35;10.88;;;;;;;7.25;77.01;99456.75;4958007;28;20133;-74
2023/12/14 05:17:55;;;;;;;13.57;11.02;;;;;;;7.23;77.26;99463.81;4975273;28;20062;-72
2023/12/14 05:20:22;;;;;;;13.88;10.98;;;;;;;7.20;77.24;99464.81;4974985;28;20086;-73
2023/12/14 05:22:49;;;;;;;13.93;11.25;;;;;;;7.18;77.09;99466.69;4974813;28;20645;-74
2023/12/14 05:25:16;;;;;;;15.57;11.18;;;;;;;7.17;77.15;99475.44;4974266;28;20046;-73
2023/12/14 05:27:42;;;;;;;12.45;10.52;;;;;;;7.15;76.91;99478.13;4972699;28;20051;-73
2023/12/14 05:30:09;;;;;;;12.68;10.65;;;;;;;7.14;77.06;99471.19;4969668;28;20504;-73
2023/12/14 05:32:36;;;;;;;11.68;10.13;;;;;;;7.13;76.96;99485.22;4957729;28;20065;-73
2023/12/14 05:35:03;;;;;;;14.75;11.55;;;;;;;7.12;77.26;99483.53;4974353;28;20508;-73
2023/12/14 05:37:30;;;;;;;12.90;11.02;;;;;;;7.13;77.43;99500.06;4973897;28;20114;-73
2023/12/14 05:39:56;;;;;;;14.95;10.77;;;;;;;7.11;77.16;99502.75;4973965;28;20050;-74
2023/12/14 05:42:23;;;;;;;13.20;10.80;;;;;;;7.11;77.54;99504.53;4974546;28;20085;-74
2023/12/14 05:44:49;;;;;;;13.10;10.70;;;;;;;7.12;77.56;99511.47;4973596;28;20042;-73
2023/12/14 05:47:16;;;;;;;16.00;11.80;;;;;;;7.12;77.10;99514.94;4974132;28;20050;-73
2023/12/14 05:49:43;;;;;;;13.70;11.57;;;;;;;7.12;77.32;99517.56;4972807;28;20134;-74
2023/12/14 05:52:10;;;;;;;13.00;10.30;;;;;;;7.13;77.36;99516.63;4964067;28;20127;-74
2023/12/14 05:54:38;;;;;;;13.55;11.18;;;;;;;7.12;77.46;99514.94;4963970;28;20467;-73
2023/12/14 05:57:05;;;;;;;13.60;11.10;;;;;;;7.13;77.45;99521.00;4974201;28;20460;-73
2023/12/14 05:59:31;;;;;;;14.02;10.45;;;;;;;7.14;77.34;99520.94;4974423;28;20054;-75
2023/12/14 06:01:58;;;;;;;13.40;10.75;;;;;;;7.14;77.15;99517.47;4974400;28;20083;-74
2023/12/14 06:04:27;;;;;;;12.20;10.77;;;;;;;7.13;77.17;99516.63;4957692;28;20101;-73
2023/12/14 06:06:53;;;;;;;13.70;10.70;;;;;;;7.16;77.15;99526.09;4974293;28;20674;-73
2023/12/14 06:09:24;;;;;;;13.32;11.48;;;;;;;7.14;77.22;99534.03;4974428;28;20047;-74
2023/12/14 06:11:51;;;;;;;13.77;11.23;;;;;;;7.13;76.65;99540.19;4974783;28;20090;-74
2023/12/14 06:14:18;;;;;;;13.95;11.55;;;;;;;7.12;76.84;99538.50;4974711;28;20050;-74
2023/12/14 06:16:45;;;;;;;18.83;12.15;;;;;;;7.12;77.01;99545.47;4957302;28;20086;-73
2023/12/14 06:19:12;;;;;;;14.73;11.48;;;;;;;7.09;76.84;99556.94;4974411;28;20046;-74
2023/12/14 06:21:39;;;;;;;15.48;12.60;;;;;;;7.08;76.82;99555.25;4974446;28;20062;-74
2023/12/14 06:24:06;;;;;;;15.57;12.32;;;;;;;7.06;76.75;99567.53;4974715;28;20113;-73
2023/12/14 06:26:32;;;;;;;12.52;10.68;;;;;;;7.06;76.75;99578.00;4974453;28;20062;-74
2023/12/14 06:28:59;;;;;;;13.93;11.55;;;;;;;7.03;76.50;99589.47;4973894;28;20138;-74
2023/12/14 06:31:25;;;;;;;14.27;11.27;;;;;;;7.02;76.60;99597.38;4957226;28;20054;-74
2023/12/14 06:33:52;;;;;;;15.02;11.77;;;;;;;7.00;76.49;99601.88;4973738;28;20496;-73
2023/12/14 06:36:20;;;;;;;14.98;11.77;;;;;;;6.98;76.46;99603.69;4974135;28;20051;-75
2023/12/14 06:38:47;;;;;;;14.63;11.30;;;;;;;6.96;76.41;99610.75;4974422;28;20050;-74
2023/12/14 06:41:21;;;;;;;14.40;12.27;;;;;;;6.91;75.35;99617.06;4973994;28;20076;-75
2023/12/14 06:43:48;;;;;;;14.73;11.45;;;;;;;6.91;76.54;99619.66;4973901;28;20101;-76
2023/12/14 06:46:15;;;;;;;15.93;12.15;;;;;;;6.90;76.42;99630.19;4973588;28;20042;-74
2023/12/14 06:48:42;;;;;;;14.43;12.10;;;;;;;6.87;76.53;99633.81;4973902;28;20121;-75
2023/12/14 06:51:09;;;;;;;15.65;12.05;;;;;;;6.86;76.31;99644.31;4974065;28;20054;-77
2023/12/14 06:53:37;;;;;;;13.85;11.88;;;;;;;6.84;76.66;99647.00;4973786;28;20106;-74
2023/12/14 06:56:04;;;;;;;12.77;11.23;;;;;;;6.81;76.50;99647.16;4956302;28;20124;-74
2023/12/14 06:58:31;;;;;;;14.05;12.15;;;;;;;6.80;76.46;99650.66;4973853;28;20484;-75
2023/12/14 07:00:58;;;;;;;15.50;12.75;;;;;;;6.80;76.93;99655.06;4973725;28;20062;-75
2023/12/14 07:03:24;;;;;;;15.85;12.13;;;;;;;6.80;76.71;99658.53;4973581;28;20098;-75
2023/12/14 07:05:51;;;;;;;15.13;12.30;;;;;;;6.80;76.78;99657.69;4955861;28;20350;-74
2023/12/14 07:08:17;;;;;;;15.23;12.68;;;;;;;6.80;77.06;99658.53;4973758;28;20054;-74
2023/12/14 07:10:44;;;;;;;13.40;11.55;;;;;;;6.80;77.00;99666.38;4973588;28;20065;-75
2023/12/14 07:13:11;;;;;;;15.05;11.77;;;;;;;6.80;76.90;99671.59;4973397;28;20053;-74
2023/12/14 07:15:37;;;;;;;15.60;11.45;;;;;;;6.78;76.95;99679.50;4952004;28;20046;-75
2023/12/14 07:18:04;;;;;;;13.75;11.73;;;;;;;6.81;77.12;99686.41;4972260;28;20098;-74
2023/12/14 07:20:30;;;;;;;13.93;11.15;;;;;;;6.82;76.97;99688.09;4973404;28;20072;-77
2023/12/14 07:22:57;;;;;;;14.52;12.38;;;;;;;6.84;77.12;99698.50;4973425;28;20065;-75
2023/12/14 07:25:24;;;;;;;13.30;11.70;;;;;;;6.85;77.79;99694.97;4972555;28;20046;-75
2023/12/14 07:27:50;;;;;;;14.68;12.07;;;;;;;6.88;77.43;99703.53;4964772;28;20054;-77
2023/12/14 07:30:17;;;;;;;14.80;12.63;;;;;;;6.90;77.44;99708.69;4972906;28;20463;-75
2023/12/14 07:32:44;;;;;;;17.55;13.23;;;;;;;6.92;77.33;99714.72;4971940;28;20059;-73
2023/12/14 07:35:11;;;;;;;15.18;12.48;;;;;;;6.95;77.41;99721.59;4973321;28;20137;-75
2023/12/14 07:37:38;;;;;;;15.45;12.30;;;;;;;6.95;76.89;99726.84;4972390;28;20530;-75
2023/12/14 07:40:05;;;;;;;16.42;12.27;;;;;;;6.95;76.91;99732.91;4972892;28;20074;-75
2023/12/14 07:42:31;;;;;;;16.30;12.38;;;;;;;6.96;77.05;99731.16;4973023;28;20054;-77
2023/12/14 07:44:59;;;;;;;14.82;12.23;;;;;;;6.97;77.41;99735.44;4972939;28;20050;-74
2023/12/14 07:47:25;;;;;;;14.90;12.77;;;;;;;6.96;77.19;99737.25;4971982;28;20054;-74
2023/12/14 07:49:52;;;;;;;14.10;12.10;;;;;;;6.97;77.24;99738.06;4972400;28;20121;-75
2023/12/14 07:52:19;;;;;;;13.52;11.77;;;;;;;6.98;77.17;99734.53;4972506;28;20058;-74
2023/12/14 07:54:46;;;;;;;14.70;12.52;;;;;;;6.98;76.93;99745.00;4972238;28;20050;-74
2023/12/14 07:57:12;;;;;;;17.23;12.77;;;;;;;6.98;76.97;99751.09;4971937;28;20051;-75
2023/12/14 07:59:39;;;;;;;15.45;12.73;;;;;;;6.98;76.85;99755.47;4971795;28;20149;-74
2023/12/14 08:02:06;;;;;;;15.00;12.55;;;;;;;6.98;76.79;99758.09;4972315;28;20043;-75
2023/12/14 08:04:33;;;;;;;14.23;12.20;;;;;;;6.98;77.25;99766.78;4972293;28;20471;-75
2023/12/14 08:07:03;;;;;;;14.90;12.23;;;;;;;6.99;77.23;99765.03;4971940;28;20081;-77
2023/12/14 08:09:29;;;;;;;14.80;12.30;;;;;;;7.00;76.91;99758.88;4971877;28;20055;-74
2023/12/14 08:11:56;;;;;;;15.57;11.93;;;;;;;7.00;76.95;99758.88;4965121;28;20145;-75
2023/12/14 08:14:22;;;;;;;15.55;12.02;;;;;;;7.01;76.72;99764.06;4972054;28;20153;-75
2023/12/14 08:16:49;;;;;;;13.20;11.32;;;;;;;7.02;77.12;99767.50;4971982;28;20555;-75
2023/12/14 08:19:16;;;;;;;14.52;12.35;;;;;;;7.03;77.18;99774.47;4971230;28;20582;-75
2023/12/14 08:21:42;;;;;;;12.52;10.95;;;;;;;7.06;77.15;99783.97;4971824;28;20058;-76
2023/12/14 08:24:09;;;;;;;13.50;11.43;;;;;;;7.07;77.24;99794.38;4971613;28;20051;-74
2023/12/14 08:26:35;;;;;;;13.32;11.27;;;;;;;7.09;77.24;99808.22;4971344;28;20085;-74
2023/12/14 08:29:02;;;;;;;13.73;11.45;;;;;;;7.10;77.18;99804.69;4972146;28;20090;-73
2023/12/14 08:31:28;;;;;;;13.80;10.80;;;;;;;7.12;77.29;99813.34;4983539;28;20482;-75
2023/12/14 08:33:55;;;;;;;12.27;10.68;;;;;;;7.14;77.47;99811.50;4976581;28;20050;-74
2023/12/14 08:36:22;;;;;;;12.88;10.77;;;;;;;7.17;77.53;99815.75;4975469;28;20130;-74
2023/12/14 08:38:48;;;;;;;12.65;10.77;;;;;;;7.19;77.68;99816.56;4975055;28;20415;-75
2023/12/14 08:41:15;;;;;;;12.18;10.82;;;;;;;7.22;77.63;99818.19;4968656;28;20498;-74
2023/12/14 08:43:42;;;;;;;13.18;11.27;;;;;;;7.26;77.83;99831.06;4974430;28;20065;-75
2023/12/14 08:46:12;;;;;;;12.90;10.75;;;;;;;7.30;77.54;99823.94;4975293;28;20049;-73
2023/12/14 08:48:39;;;;;;;13.68;11.15;;;;;;;7.33;77.72;99829.03;4962858;28;20054;-76
2023/12/14 08:51:06;;;;;;;12.95;11.40;;;;;;;7.36;77.34;99831.53;4975362;28;20126;-74
2023/12/14 08:53:32;;;;;;;12.32;10.95;;;;;;;7.38;77.33;99840.19;4974851;28;20054;-74
2023/12/14 08:55:59;;;;;;;13.63;11.13;;;;;;;7.41;77.33;99840.03;4974855;28;20074;-74
2023/12/14 08:58:26;;;;;;;12.13;10.82;;;;;;;7.43;77.51;99843.47;4975654;28;20067;-75
2023/12/14 09:00:53;;;;;;;14.20;11.80;;;;;;;7.46;77.44;99846.84;4975270;28;20055;-75
2023/12/14 09:03:20;;;;;;;15.52;12.48;;;;;;;7.48;77.46;99855.50;4974695;28;20501;-76
2023/12/14 09:05:47;;;;;;;14.63;11.75;;;;;;;7.50;77.43;99858.91;4974688;28;20499;-75
2023/12/14 09:08:14;;;;;;;15.85;11.73;;;;;;;7.53;77.39;99871.88;4974972;28;20078;-76
2023/12/14 09:10:41;;;;;;;14.10;12.45;;;;;;;7.55;77.69;99868.28;4974820;28;20766;-75
2023/12/14 09:13:08;;;;;;;15.05;12.32;;;;;;;7.58;77.64;99877.75;4974464;28;20047;-74
2023/12/14 09:15:34;;;;;;;16.52;12.15;;;;;;;7.60;77.69;99881.19;4974519;28;20055;-75
2023/12/14 09:18:02;;;;;;;15.75;12.15;;;;;;;7.63;77.64;99881.03;4974961;28;20051;-74
2023/12/14 09:20:29;;;;;;;13.73;11.82;;;;;;;7.66;77.10;99877.44;4974912;28;20058;-74
2023/12/14 09:22:55;;;;;;;13.30;11.52;;;;;;;7.68;77.23;99878.22;4974679;28;20581;-74
2023/12/14 09:25:23;;;;;;;13.93;12.10;;;;;;;7.69;77.21;99880.78;4974682;28;20132;-77
2023/12/14 09:27:49;;;;;;;17.30;12.25;;;;;;;7.69;77.04;99880.78;4974520;28;20051;-74
2023/12/14 09:30:17;;;;;;;13.60;11.25;;;;;;;7.71;77.53;99893.84;4974760;28;20495;-75
2023/12/14 09:32:44;;;;;;;17.30;12.07;;;;;;;7.73;77.26;99891.97;4974914;28;20054;-74
2023/12/14 09:35:11;;;;;;;14.27;12.48;;;;;;;7.74;77.38;99906.78;4973960;28;20467;-74
2023/12/14 09:37:38;;;;;;;13.98;12.40;;;;;;;7.77;77.36;99908.41;4974249;28;20059;-75
2023/12/14 09:40:06;;;;;;;13.93;11.70;;;;;;;7.77;77.26;99906.66;4970351;28;20055;-75
2023/12/14 09:42:37;;;;;;;16.15;13.05;;;;;;;7.79;76.57;99917.06;4974019;28;20097;-75
2023/12/14 09:45:07;;;;;;;13.65;11.75;;;;;;;7.80;76.95;99924.88;4956423;28;20065;-74
2023/12/14 09:47:34;;;;;;;13.82;11.15;;;;;;;7.84;77.11;99916.91;4956833;28;20054;-76
2023/12/14 09:50:03;;;;;;;14.88;11.60;;;;;;;7.85;76.89;99924.66;4948783;28;20055;-75
2023/12/14 09:52:29;;;;;;;14.13;12.20;;;;;;;7.87;76.96;99925.47;4973329;28;20066;-72
2023/12/14 09:54:56;;;;;;;12.90;11.43;;;;;;;7.88;77.14;99916.69;4973133;28;20050;-74
2023/12/14 09:57:24;;;;;;;15.13;11.88;;;;;;;7.90;77.33;99919.22;4973934;28;20137;-74
2023/12/14 09:59:52;;;;;;;15.65;12.15;;;;;;;7.91;77.33;99920.94;4973830;28;20085;-74
2023/12/14 10:02:19;;;;;;;15.20;13.15;;;;;;;7.94;77.07;99931.28;4974248;28;20102;-77
2023/12/14 10:04:46;;;;;;;15.77;13.40;;;;;;;7.97;77.52;99935.53;4974325;28;20602;-74
2023/12/14 10:07:13;;;;;;;17.83;14.10;;;;;;;7.99;77.67;99944.22;4957075;28;20058;-75
2023/12/14 10:09:42;;;;;;;16.52;13.38;;;;;;;8.03;77.40;99941.38;4956863;28;20058;-74
2023/12/14 10:12:09;;;;;;;15.15;12.68;;;;;;;8.06;77.21;99945.63;4974395;28;20412;-78
2023/12/14 10:14:37;;;;;;;15.40;12.77;;;;;;;8.08;77.60;99949.06;4974051;28;20093;-75
2023/12/14 10:17:22;;;;;;;17.90;13.57;;;;;;;8.07;75.89;99949.94;4973792;28;20150;-78
2023/12/14 10:19:49;;;;;;;16.15;13.05;;;;;;;8.14;77.43;99959.25;4956694;28;20061;-75
2023/12/14 10:22:20;;;;;;;13.60;12.02;;;;;;;8.17;77.30;99967.00;4973205;28;20499;-75
2023/12/14 10:24:47;;;;;;;16.45;12.82;;;;;;;8.19;77.20;99966.94;4974031;28;20130;-75
2023/12/14 10:27:15;;;;;;;15.77;11.50;;;;;;;8.20;77.16;99968.63;4973604;28;20061;-76
2023/12/14 10:29:44;;;;;;;12.77;11.07;;;;;;;8.23;76.84;99967.66;4973221;28;20054;-75
2023/12/14 10:32:11;;;;;;;13.73;11.27;;;;;;;8.24;76.80;99966.72;4953338;29;20118;-77
2023/12/14 10:34:41;;;;;;;14.75;11.82;;;;;;;8.24;76.62;99966.72;4954429;29;20055;-75
2023/12/14 10:37:09;;;;;;;14.88;12.07;;;;;;;8.24;76.53;99969.34;4968260;28;20058;-77
2023/12/14 10:39:37;;;;;;;14.82;11.65;;;;;;;8.24;76.78;99969.34;4980356;28;20065;-75
2023/12/14 10:42:08;;;;;;;15.00;12.68;;;;;;;8.24;76.48;99970.19;4973017;28;20125;-74
2023/12/14 10:44:48;;;;;;;16.73;12.45;;;;;;;8.26;76.87;99978.84;4965897;28;20070;-77
2023/12/14 10:47:34;;;;;;;15.50;12.65;;;;;;;8.28;76.95;99976.16;4967453;28;20051;-74
2023/12/14 10:50:02;;;;;;;16.63;12.55;;;;;;;8.30;77.26;99980.41;4972765;28;20047;-74
2023/12/14 10:52:30;;;;;;;14.85;12.90;;;;;;;8.32;76.91;99975.09;4966706;28;20050;-74
2023/12/14 10:55:02;;;;;;;16.23;12.30;;;;;;;8.32;76.04;99978.59;4973040;28;20134;-75
2023/12/14 10:57:28;;;;;;;15.77;12.63;;;;;;;8.37;77.03;99981.00;4965474;28;20126;-75
2023/12/14 10:59:59;;;;;;;14.25;12.18;;;;;;;8.38;76.69;99987.09;4972847;28;20055;-74
2023/12/14 11:02:26;;;;;;;13.88;11.43;;;;;;;8.43;77.46;99991.22;4972784;28;20129;-74
2023/12/14 11:04:58;;;;;;;15.63;12.00;;;;;;;8.47;76.60;99991.94;4972932;28;20519;-76
2023/12/14 11:07:47;;;;;;;14.45;12.02;;;;;;;8.50;75.61;99998.81;4973021;28;20505;-75
2023/12/14 11:10:18;;;;;;;15.00;11.65;;;;;;;8.57;77.12;100009.00;4972851;28;20061;-74
2023/12/14 11:13:01;;;;;;;14.93;12.60;;;;;;;8.58;75.50;100008.09;4972893;28;20066;-74
2023/12/14 11:15:28;;;;;;;;;;;;;;;8.63;75.06;100018.38;4973266;28;20057;-74
2023/12/14 11:18:10;;;;;;;14.70;10.77;;;;;;;8.65;74.65;100020.94;4972864;28;19925;-74
2023/12/14 11:21:00;;;;;;;13.85;10.57;;;;;;;8.64;74.89;100024.47;4972467;28;20050;-75
2023/12/14 11:23:36;;;;;;;17.35;11.70;;;;;;;8.66;75.82;100035.75;4972714;28;20507;-75
2023/12/14 11:26:05;;;;;;;13.45;11.25;;;;;;;8.65;76.13;100045.41;4972764;28;20062;-75
2023/12/14 11:28:34;;;;;;;16.90;12.63;;;;;;;8.65;76.39;100039.28;4972684;28;20051;-74
2023/12/14 11:31:02;;;;;;;15.07;11.45;;;;;;;8.65;76.30;100055.91;4972506;28;20050;-74